sensor_id;sensor_type;location;lat;lon;timestamp;P1;durP1;ratioP1;P2;durP2;ratioP2
58992;SDS011;44782;0.000;0.000;2024-01-25T00:00:08;4.70;;;3.20;;
58992;SDS011;44782;0.000;0.000;2024-01-25T00:02:25;4.60;;;3.30;;
58992;SDS011;44782;0.000;0.000;2024-01-25T00:04:40;3.47;;;3.17;;
58992;SDS011;44782;0.000;0.000;2024-01-25T00:06:56;4.57;;;3.00;;
58992;SDS011;44782;0.000;0.000;2024-01-25T00:09:12;5.07;;;3.10;;
58992;SDS011;44782;0.000;0.000;2024-01-25T00:11:27;4.53;;;3.17;;
58992;SDS011;44782;0.000;0.000;2024-01-25T00:13:46;4.70;;;3.17;;
58992;SDS011;44782;0.000;0.000;2024-01-25T00:16:02;4.17;;;2.97;;
58992;SDS011;44782;0.000;0.000;2024-01-25T00:18:18;3.43;;;3.07;;
58992;SDS011;44782;0.000;0.000;2024-01-25T00:20:33;4.80;;;3.20;;
58992;SDS011;44782;0.000;0.000;2024-01-25T00:22:49;4.47;;;3.20;;
58992;SDS011;44782;0.000;0.000;2024-01-25T00:25:05;4.00;;;3.00;;
58992;SDS011;44782;0.000;0.000;2024-01-25T00:27:21;3.87;;;2.90;;
58992;SDS011;44782;0.000;0.000;2024-01-25T00:29:37;5.43;;;3.20;;
58992;SDS011;44782;0.000;0.000;2024-01-25T00:31:52;4.90;;;3.20;;
58992;SDS011;44782;0.000;0.000;2024-01-25T00:34:08;4.77;;;3.20;;
58992;SDS011;44782;0.000;0.000;2024-01-25T00:36:24;4.30;;;3.03;;
58992;SDS011;44782;0.000;0.000;2024-01-25T00:38:40;4.07;;;2.93;;
58992;SDS011;44782;0.000;0.000;2024-01-25T00:40:56;4.07;;;3.17;;
58992;SDS011;44782;0.000;0.000;2024-01-25T00:43:13;4.33;;;3.10;;
58992;SDS011;44782;0.000;0.000;2024-01-25T00:45:29;4.87;;;3.07;;
58992;SDS011;44782;0.000;0.000;2024-01-25T00:47:45;4.60;;;3.27;;
58992;SDS011;44782;0.000;0.000;2024-01-25T00:50:01;3.93;;;2.93;;
58992;SDS011;44782;0.000;0.000;2024-01-25T00:52:17;5.03;;;3.37;;
58992;SDS011;44782;0.000;0.000;2024-01-25T00:54:33;4.20;;;2.97;;
58992;SDS011;44782;0.000;0.000;2024-01-25T00:56:49;3.37;;;2.70;;
58992;SDS011;44782;0.000;0.000;2024-01-25T00:59:07;4.57;;;3.03;;
58992;SDS011;44782;0.000;0.000;2024-01-25T01:01:23;3.50;;;2.90;;
58992;SDS011;44782;0.000;0.000;2024-01-25T01:03:40;4.10;;;3.10;;
58992;SDS011;44782;0.000;0.000;2024-01-25T01:05:56;3.97;;;2.70;;
58992;SDS011;44782;0.000;0.000;2024-01-25T01:08:12;3.40;;;2.87;;
58992;SDS011;44782;0.000;0.000;2024-01-25T01:10:28;4.03;;;2.87;;
58992;SDS011;44782;0.000;0.000;2024-01-25T01:12:45;3.23;;;2.83;;
58992;SDS011;44782;0.000;0.000;2024-01-25T01:15:01;3.87;;;3.13;;
58992;SDS011;44782;0.000;0.000;2024-01-25T01:17:17;3.87;;;3.10;;
58992;SDS011;44782;0.000;0.000;2024-01-25T01:19:35;3.67;;;2.60;;
58992;SDS011;44782;0.000;0.000;2024-01-25T01:21:51;3.70;;;2.90;;
58992;SDS011;44782;0.000;0.000;2024-01-25T01:24:07;4.53;;;2.83;;
58992;SDS011;44782;0.000;0.000;2024-01-25T01:26:22;4.83;;;3.03;;
58992;SDS011;44782;0.000;0.000;2024-01-25T01:28:38;3.70;;;2.80;;
58992;SDS011;44782;0.000;0.000;2024-01-25T01:30:54;3.43;;;2.77;;
58992;SDS011;44782;0.000;0.000;2024-01-25T01:33:09;4.47;;;3.00;;
58992;SDS011;44782;0.000;0.000;2024-01-25T01:35:25;3.07;;;2.60;;
58992;SDS011;44782;0.000;0.000;2024-01-25T01:37:41;3.30;;;2.70;;
58992;SDS011;44782;0.000;0.000;2024-01-25T01:39:56;4.23;;;2.67;;
58992;SDS011;44782;0.000;0.000;2024-01-25T01:42:14;4.63;;;2.97;;
58992;SDS011;44782;0.000;0.000;2024-01-25T01:44:29;3.40;;;2.97;;
58992;SDS011;44782;0.000;0.000;2024-01-25T01:46:45;3.90;;;3.00;;
58992;SDS011;44782;0.000;0.000;2024-01-25T01:49:01;3.47;;;2.80;;
58992;SDS011;44782;0.000;0.000;2024-01-25T01:51:21;3.73;;;2.80;;
58992;SDS011;44782;0.000;0.000;2024-01-25T01:53:37;3.93;;;2.60;;
58992;SDS011;44782;0.000;0.000;2024-01-25T01:55:53;3.20;;;2.77;;
58992;SDS011;44782;0.000;0.000;2024-01-25T01:58:09;3.40;;;2.80;;
58992;SDS011;44782;0.000;0.000;2024-01-25T02:00:25;3.33;;;2.73;;
58992;SDS011;44782;0.000;0.000;2024-01-25T02:02:41;2.93;;;2.57;;
58992;SDS011;44782;0.000;0.000;2024-01-25T02:04:57;3.80;;;2.70;;
58992;SDS011;44782;0.000;0.000;2024-01-25T02:09:38;3.97;;;2.80;;
58992;SDS011;44782;0.000;0.000;2024-01-25T02:12:03;2.83;;;2.50;;
58992;SDS011;44782;0.000;0.000;2024-01-25T02:14:19;3.37;;;2.80;;
58992;SDS011;44782;0.000;0.000;2024-01-25T02:16:34;3.33;;;2.57;;
58992;SDS011;44782;0.000;0.000;2024-01-25T02:18:50;3.83;;;2.53;;
58992;SDS011;44782;0.000;0.000;2024-01-25T02:21:06;3.30;;;2.30;;
58992;SDS011;44782;0.000;0.000;2024-01-25T02:23:21;3.77;;;2.60;;
58992;SDS011;44782;0.000;0.000;2024-01-25T02:25:37;3.63;;;2.87;;
58992;SDS011;44782;0.000;0.000;2024-01-25T02:27:52;2.97;;;2.37;;
58992;SDS011;44782;0.000;0.000;2024-01-25T02:30:08;2.60;;;2.40;;
58992;SDS011;44782;0.000;0.000;2024-01-25T02:32:24;3.70;;;2.97;;
58992;SDS011;44782;0.000;0.000;2024-01-25T02:34:40;2.73;;;2.43;;
58992;SDS011;44782;0.000;0.000;2024-01-25T02:36:55;3.60;;;2.40;;
58992;SDS011;44782;0.000;0.000;2024-01-25T02:39:11;3.77;;;2.50;;
58992;SDS011;44782;0.000;0.000;2024-01-25T02:41:29;3.87;;;2.40;;
58992;SDS011;44782;0.000;0.000;2024-01-25T02:43:45;3.13;;;2.60;;
58992;SDS011;44782;0.000;0.000;2024-01-25T02:46:01;3.57;;;2.60;;
58992;SDS011;44782;0.000;0.000;2024-01-25T02:48:16;3.23;;;2.37;;
58992;SDS011;44782;0.000;0.000;2024-01-25T02:50:32;3.00;;;2.67;;
58992;SDS011;44782;0.000;0.000;2024-01-25T02:52:48;3.07;;;2.53;;
58992;SDS011;44782;0.000;0.000;2024-01-25T02:55:04;2.67;;;2.37;;
58992;SDS011;44782;0.000;0.000;2024-01-25T02:57:19;3.77;;;2.60;;
58992;SDS011;44782;0.000;0.000;2024-01-25T02:59:35;3.13;;;2.47;;
58992;SDS011;44782;0.000;0.000;2024-01-25T03:01:51;2.90;;;2.50;;
58992;SDS011;44782;0.000;0.000;2024-01-25T03:04:09;2.87;;;2.40;;
58992;SDS011;44782;0.000;0.000;2024-01-25T03:06:24;3.20;;;2.40;;
58992;SDS011;44782;0.000;0.000;2024-01-25T03:08:40;2.90;;;2.17;;
58992;SDS011;44782;0.000;0.000;2024-01-25T03:10:56;3.70;;;2.90;;
58992;SDS011;44782;0.000;0.000;2024-01-25T03:13:11;3.67;;;2.47;;
58992;SDS011;44782;0.000;0.000;2024-01-25T03:15:27;4.10;;;2.40;;
58992;SDS011;44782;0.000;0.000;2024-01-25T03:17:43;3.17;;;2.40;;
58992;SDS011;44782;0.000;0.000;2024-01-25T03:19:58;3.30;;;2.47;;
58992;SDS011;44782;0.000;0.000;2024-01-25T03:22:14;2.57;;;2.20;;
58992;SDS011;44782;0.000;0.000;2024-01-25T03:24:30;2.63;;;2.43;;
58992;SDS011;44782;0.000;0.000;2024-01-25T03:26:45;3.20;;;2.70;;
58992;SDS011;44782;0.000;0.000;2024-01-25T03:29:01;2.50;;;2.30;;
58992;SDS011;44782;0.000;0.000;2024-01-25T03:31:16;2.33;;;2.13;;
58992;SDS011;44782;0.000;0.000;2024-01-25T03:33:32;3.03;;;2.60;;
58992;SDS011;44782;0.000;0.000;2024-01-25T03:35:48;2.77;;;2.30;;
58992;SDS011;44782;0.000;0.000;2024-01-25T03:38:03;2.67;;;2.37;;
58992;SDS011;44782;0.000;0.000;2024-01-25T03:40:19;2.53;;;2.33;;
58992;SDS011;44782;0.000;0.000;2024-01-25T03:42:35;3.00;;;2.53;;
58992;SDS011;44782;0.000;0.000;2024-01-25T03:44:51;2.73;;;2.23;;
58992;SDS011;44782;0.000;0.000;2024-01-25T03:47:07;2.90;;;2.40;;
58992;SDS011;44782;0.000;0.000;2024-01-25T03:49:22;2.70;;;2.20;;
58992;SDS011;44782;0.000;0.000;2024-01-25T03:51:38;3.07;;;2.43;;
58992;SDS011;44782;0.000;0.000;2024-01-25T03:53:54;3.03;;;2.30;;
58992;SDS011;44782;0.000;0.000;2024-01-25T03:56:10;2.70;;;2.30;;
58992;SDS011;44782;0.000;0.000;2024-01-25T03:58:28;3.07;;;2.50;;
58992;SDS011;44782;0.000;0.000;2024-01-25T04:00:44;2.67;;;2.20;;
58992;SDS011;44782;0.000;0.000;2024-01-25T04:02:59;2.43;;;2.10;;
58992;SDS011;44782;0.000;0.000;2024-01-25T04:05:15;2.50;;;2.17;;
58992;SDS011;44782;0.000;0.000;2024-01-25T04:07:31;2.60;;;2.33;;
58992;SDS011;44782;0.000;0.000;2024-01-25T04:09:46;2.80;;;2.20;;
58992;SDS011;44782;0.000;0.000;2024-01-25T04:12:02;2.30;;;2.10;;
58992;SDS011;44782;0.000;0.000;2024-01-25T04:14:18;3.43;;;2.50;;
58992;SDS011;44782;0.000;0.000;2024-01-25T04:16:33;2.57;;;2.17;;
58992;SDS011;44782;0.000;0.000;2024-01-25T04:18:49;3.07;;;2.57;;
58992;SDS011;44782;0.000;0.000;2024-01-25T04:21:05;2.53;;;2.20;;
58992;SDS011;44782;0.000;0.000;2024-01-25T04:23:20;2.40;;;2.20;;
58992;SDS011;44782;0.000;0.000;2024-01-25T04:25:36;2.53;;;2.03;;
58992;SDS011;44782;0.000;0.000;2024-01-25T04:27:52;2.57;;;2.27;;
58992;SDS011;44782;0.000;0.000;2024-01-25T04:30:07;2.80;;;2.43;;
58992;SDS011;44782;0.000;0.000;2024-01-25T04:32:23;3.10;;;2.50;;
58992;SDS011;44782;0.000;0.000;2024-01-25T04:34:39;2.73;;;2.30;;
58992;SDS011;44782;0.000;0.000;2024-01-25T04:36:54;2.77;;;2.47;;
58992;SDS011;44782;0.000;0.000;2024-01-25T04:39:10;2.60;;;2.33;;
58992;SDS011;44782;0.000;0.000;2024-01-25T04:41:26;2.90;;;2.20;;
58992;SDS011;44782;0.000;0.000;2024-01-25T04:43:41;2.60;;;2.27;;
58992;SDS011;44782;0.000;0.000;2024-01-25T04:45:57;2.43;;;2.23;;
58992;SDS011;44782;0.000;0.000;2024-01-25T04:48:13;2.20;;;2.00;;
58992;SDS011;44782;0.000;0.000;2024-01-25T04:50:28;2.23;;;2.03;;
58992;SDS011;44782;0.000;0.000;2024-01-25T04:52:44;2.23;;;2.03;;
58992;SDS011;44782;0.000;0.000;2024-01-25T04:54:59;2.20;;;2.00;;
58992;SDS011;44782;0.000;0.000;2024-01-25T04:57:15;2.00;;;1.90;;
58992;SDS011;44782;0.000;0.000;2024-01-25T04:59:31;2.27;;;1.90;;
58992;SDS011;44782;0.000;0.000;2024-01-25T05:01:47;2.20;;;1.97;;
58992;SDS011;44782;0.000;0.000;2024-01-25T05:04:03;1.83;;;1.73;;
58992;SDS011;44782;0.000;0.000;2024-01-25T05:06:19;2.10;;;1.90;;
58992;SDS011;44782;0.000;0.000;2024-01-25T05:08:34;2.00;;;1.80;;
58992;SDS011;44782;0.000;0.000;2024-01-25T05:10:53;2.08;;;1.90;;
58992;SDS011;44782;0.000;0.000;2024-01-25T05:13:09;2.37;;;1.73;;
58992;SDS011;44782;0.000;0.000;2024-01-25T05:15:25;1.92;;;1.77;;
58992;SDS011;44782;0.000;0.000;2024-01-25T05:17:40;1.80;;;1.63;;
58992;SDS011;44782;0.000;0.000;2024-01-25T05:19:56;2.17;;;1.93;;
58992;SDS011;44782;0.000;0.000;2024-01-25T05:22:12;2.10;;;1.90;;
58992;SDS011;44782;0.000;0.000;2024-01-25T05:24:27;2.40;;;1.95;;
58992;SDS011;44782;0.000;0.000;2024-01-25T05:26:43;2.00;;;1.80;;
58992;SDS011;44782;0.000;0.000;2024-01-25T05:28:59;2.10;;;1.90;;
58992;SDS011;44782;0.000;0.000;2024-01-25T05:31:14;2.65;;;1.83;;
58992;SDS011;44782;0.000;0.000;2024-01-25T05:33:31;2.20;;;1.73;;
58992;SDS011;44782;0.000;0.000;2024-01-25T05:35:47;1.90;;;1.80;;
58992;SDS011;44782;0.000;0.000;2024-01-25T05:38:02;1.83;;;1.70;;
58992;SDS011;44782;0.000;0.000;2024-01-25T05:40:18;1.75;;;1.60;;
58992;SDS011;44782;0.000;0.000;2024-01-25T05:42:34;1.63;;;1.52;;
58992;SDS011;44782;0.000;0.000;2024-01-25T05:44:50;2.22;;;1.90;;
58992;SDS011;44782;0.000;0.000;2024-01-25T05:47:06;2.00;;;1.80;;
58992;SDS011;44782;0.000;0.000;2024-01-25T05:49:22;1.88;;;1.77;;
58992;SDS011;44782;0.000;0.000;2024-01-25T05:51:37;2.22;;;2.00;;
58992;SDS011;44782;0.000;0.000;2024-01-25T05:53:53;2.00;;;1.80;;
58992;SDS011;44782;0.000;0.000;2024-01-25T05:56:11;1.83;;;1.73;;
58992;SDS011;44782;0.000;0.000;2024-01-25T05:58:27;2.30;;;1.90;;
58992;SDS011;44782;0.000;0.000;2024-01-25T06:00:42;1.90;;;1.80;;
58992;SDS011;44782;0.000;0.000;2024-01-25T06:02:58;1.95;;;1.83;;
58992;SDS011;44782;0.000;0.000;2024-01-25T06:05:14;2.15;;;1.70;;
58992;SDS011;44782;0.000;0.000;2024-01-25T06:07:30;2.10;;;1.90;;
58992;SDS011;44782;0.000;0.000;2024-01-25T06:09:45;1.92;;;1.80;;
58992;SDS011;44782;0.000;0.000;2024-01-25T06:12:01;2.10;;;1.90;;
58992;SDS011;44782;0.000;0.000;2024-01-25T06:14:19;1.80;;;1.67;;
58992;SDS011;44782;0.000;0.000;2024-01-25T06:16:34;2.00;;;1.80;;
58992;SDS011;44782;0.000;0.000;2024-01-25T06:18:50;2.45;;;2.00;;
58992;SDS011;44782;0.000;0.000;2024-01-25T06:21:06;1.88;;;1.65;;
58992;SDS011;44782;0.000;0.000;2024-01-25T06:23:22;2.00;;;1.80;;
58992;SDS011;44782;0.000;0.000;2024-01-25T06:25:37;2.28;;;1.70;;
58992;SDS011;44782;0.000;0.000;2024-01-25T06:27:53;1.90;;;1.70;;
58992;SDS011;44782;0.000;0.000;2024-01-25T06:30:09;2.00;;;1.80;;
58992;SDS011;44782;0.000;0.000;2024-01-25T06:32:25;2.97;;;1.80;;
58992;SDS011;44782;0.000;0.000;2024-01-25T06:34:40;2.00;;;1.80;;
58992;SDS011;44782;0.000;0.000;2024-01-25T06:36:56;1.80;;;1.70;;
58992;SDS011;44782;0.000;0.000;2024-01-25T06:39:11;2.65;;;1.95;;
58992;SDS011;44782;0.000;0.000;2024-01-25T06:41:27;1.90;;;1.80;;
58992;SDS011;44782;0.000;0.000;2024-01-25T06:43:43;2.00;;;1.90;;
58992;SDS011;44782;0.000;0.000;2024-01-25T06:45:59;2.17;;;1.98;;
58992;SDS011;44782;0.000;0.000;2024-01-25T06:48:14;1.92;;;1.75;;
58992;SDS011;44782;0.000;0.000;2024-01-25T06:50:30;2.22;;;2.00;;
58992;SDS011;44782;0.000;0.000;2024-01-25T06:52:46;2.00;;;1.80;;
58992;SDS011;44782;0.000;0.000;2024-01-25T06:55:01;1.83;;;1.67;;
58992;SDS011;44782;0.000;0.000;2024-01-25T06:57:17;2.75;;;1.90;;
58992;SDS011;44782;0.000;0.000;2024-01-25T06:59:33;3.13;;;2.03;;
58992;SDS011;44782;0.000;0.000;2024-01-25T07:01:48;3.55;;;2.05;;
58992;SDS011;44782;0.000;0.000;2024-01-25T07:04:04;2.72;;;2.00;;
58992;SDS011;44782;0.000;0.000;2024-01-25T07:06:22;3.63;;;2.00;;
58992;SDS011;44782;0.000;0.000;2024-01-25T07:08:38;3.20;;;1.85;;
58992;SDS011;44782;0.000;0.000;2024-01-25T07:10:53;2.45;;;1.98;;
58992;SDS011;44782;0.000;0.000;2024-01-25T07:13:10;1.73;;;1.63;;
58992;SDS011;44782;0.000;0.000;2024-01-25T07:15:26;2.47;;;2.05;;
58992;SDS011;44782;0.000;0.000;2024-01-25T07:17:42;2.63;;;1.90;;
58992;SDS011;44782;0.000;0.000;2024-01-25T07:19:58;2.13;;;1.92;;
58992;SDS011;44782;0.000;0.000;2024-01-25T07:22:13;2.40;;;1.80;;
58992;SDS011;44782;0.000;0.000;2024-01-25T07:24:30;2.15;;;1.80;;
58992;SDS011;44782;0.000;0.000;2024-01-25T07:26:46;2.47;;;1.83;;
58992;SDS011;44782;0.000;0.000;2024-01-25T07:29:02;3.25;;;2.15;;
58992;SDS011;44782;0.000;0.000;2024-01-25T07:31:17;2.13;;;1.75;;
58992;SDS011;44782;0.000;0.000;2024-01-25T07:33:33;3.08;;;2.13;;
58992;SDS011;44782;0.000;0.000;2024-01-25T07:35:50;3.55;;;1.80;;
58992;SDS011;44782;0.000;0.000;2024-01-25T07:38:06;2.88;;;2.05;;
58992;SDS011;44782;0.000;0.000;2024-01-25T07:40:21;2.63;;;2.05;;
58992;SDS011;44782;0.000;0.000;2024-01-25T07:42:37;3.47;;;2.03;;
58992;SDS011;44782;0.000;0.000;2024-01-25T07:44:52;3.08;;;2.10;;
58992;SDS011;44782;0.000;0.000;2024-01-25T07:47:08;3.83;;;2.10;;
58992;SDS011;44782;0.000;0.000;2024-01-25T07:49:24;2.95;;;2.22;;
58992;SDS011;44782;0.000;0.000;2024-01-25T07:51:39;2.55;;;2.17;;
58992;SDS011;44782;0.000;0.000;2024-01-25T07:53:55;2.88;;;2.40;;
58992;SDS011;44782;0.000;0.000;2024-01-25T07:56:11;3.05;;;1.90;;
58992;SDS011;44782;0.000;0.000;2024-01-25T07:58:26;2.30;;;2.00;;
58992;SDS011;44782;0.000;0.000;2024-01-25T08:00:45;2.72;;;2.05;;
58992;SDS011;44782;0.000;0.000;2024-01-25T08:03:01;3.45;;;2.10;;
58992;SDS011;44782;0.000;0.000;2024-01-25T08:05:16;4.45;;;2.30;;
58992;SDS011;44782;0.000;0.000;2024-01-25T08:07:32;4.85;;;2.30;;
58992;SDS011;44782;0.000;0.000;2024-01-25T08:09:48;3.30;;;2.30;;
58992;SDS011;44782;0.000;0.000;2024-01-25T08:12:06;3.08;;;2.28;;
58992;SDS011;44782;0.000;0.000;2024-01-25T08:14:22;2.53;;;2.20;;
58992;SDS011;44782;0.000;0.000;2024-01-25T08:16:38;2.67;;;2.00;;
58992;SDS011;44782;0.000;0.000;2024-01-25T08:18:53;2.72;;;2.10;;
58992;SDS011;44782;0.000;0.000;2024-01-25T08:21:10;2.95;;;2.20;;
58992;SDS011;44782;0.000;0.000;2024-01-25T08:23:26;3.08;;;2.35;;
58992;SDS011;44782;0.000;0.000;2024-01-25T08:25:42;3.15;;;2.35;;
58992;SDS011;44782;0.000;0.000;2024-01-25T08:27:58;4.72;;;2.22;;
58992;SDS011;44782;0.000;0.000;2024-01-25T08:30:13;3.38;;;2.10;;
58992;SDS011;44782;0.000;0.000;2024-01-25T08:32:29;3.42;;;2.35;;
58992;SDS011;44782;0.000;0.000;2024-01-25T08:34:45;2.50;;;2.03;;
58992;SDS011;44782;0.000;0.000;2024-01-25T08:37:00;2.92;;;2.05;;
58992;SDS011;44782;0.000;0.000;2024-01-25T08:39:16;3.38;;;2.50;;
58992;SDS011;44782;0.000;0.000;2024-01-25T08:41:32;3.45;;;2.20;;
58992;SDS011;44782;0.000;0.000;2024-01-25T08:43:47;2.58;;;2.10;;
58992;SDS011;44782;0.000;0.000;2024-01-25T08:46:03;2.25;;;2.05;;
58992;SDS011;44782;0.000;0.000;2024-01-25T08:48:19;3.22;;;2.20;;
58992;SDS011;44782;0.000;0.000;2024-01-25T08:50:37;3.38;;;2.25;;
58992;SDS011;44782;0.000;0.000;2024-01-25T08:52:53;3.47;;;2.30;;
58992;SDS011;44782;0.000;0.000;2024-01-25T08:55:09;2.33;;;2.08;;
58992;SDS011;44782;0.000;0.000;2024-01-25T08:57:25;3.08;;;2.42;;
58992;SDS011;44782;0.000;0.000;2024-01-25T08:59:41;3.35;;;2.13;;
58992;SDS011;44782;0.000;0.000;2024-01-25T09:01:56;3.13;;;2.33;;
58992;SDS011;44782;0.000;0.000;2024-01-25T09:04:12;2.42;;;2.17;;
58992;SDS011;44782;0.000;0.000;2024-01-25T09:06:28;2.75;;;2.10;;
58992;SDS011;44782;0.000;0.000;2024-01-25T09:08:45;2.70;;;2.10;;
58992;SDS011;44782;0.000;0.000;2024-01-25T09:11:00;3.47;;;2.50;;
58992;SDS011;44782;0.000;0.000;2024-01-25T09:13:16;3.38;;;2.42;;
58992;SDS011;44782;0.000;0.000;2024-01-25T09:15:32;3.05;;;2.22;;
58992;SDS011;44782;0.000;0.000;2024-01-25T09:17:48;2.53;;;2.33;;
58992;SDS011;44782;0.000;0.000;2024-01-25T09:20:03;2.87;;;2.30;;
58992;SDS011;44782;0.000;0.000;2024-01-25T09:22:20;3.27;;;2.57;;
58992;SDS011;44782;0.000;0.000;2024-01-25T09:24:36;2.87;;;2.33;;
58992;SDS011;44782;0.000;0.000;2024-01-25T09:26:51;2.37;;;2.17;;
58992;SDS011;44782;0.000;0.000;2024-01-25T09:29:07;2.97;;;2.10;;
58992;SDS011;44782;0.000;0.000;2024-01-25T09:31:23;4.07;;;2.47;;
58992;SDS011;44782;0.000;0.000;2024-01-25T09:33:39;2.50;;;2.30;;
58992;SDS011;44782;0.000;0.000;2024-01-25T09:35:55;2.80;;;2.40;;
58992;SDS011;44782;0.000;0.000;2024-01-25T09:38:10;2.63;;;2.37;;
58992;SDS011;44782;0.000;0.000;2024-01-25T09:40:26;3.00;;;2.30;;
58992;SDS011;44782;0.000;0.000;2024-01-25T09:42:42;3.07;;;2.40;;
58992;SDS011;44782;0.000;0.000;2024-01-25T09:44:58;2.73;;;2.37;;
58992;SDS011;44782;0.000;0.000;2024-01-25T09:47:14;2.77;;;2.00;;
58992;SDS011;44782;0.000;0.000;2024-01-25T09:49:31;2.73;;;2.43;;
58992;SDS011;44782;0.000;0.000;2024-01-25T09:51:47;2.53;;;2.33;;
58992;SDS011;44782;0.000;0.000;2024-01-25T09:54:06;2.80;;;2.40;;
58992;SDS011;44782;0.000;0.000;2024-01-25T09:56:22;3.23;;;2.53;;
58992;SDS011;44782;0.000;0.000;2024-01-25T10:00:58;2.37;;;2.17;;
58992;SDS011;44782;0.000;0.000;2024-01-25T10:03:13;3.47;;;2.33;;
58992;SDS011;44782;0.000;0.000;2024-01-25T10:05:29;3.13;;;2.30;;
58992;SDS011;44782;0.000;0.000;2024-01-25T10:07:46;2.40;;;2.20;;
58992;SDS011;44782;0.000;0.000;2024-01-25T10:10:02;2.80;;;2.47;;
58992;SDS011;44782;0.000;0.000;2024-01-25T10:12:19;2.57;;;2.30;;
58992;SDS011;44782;0.000;0.000;2024-01-25T10:14:34;2.30;;;2.10;;
58992;SDS011;44782;0.000;0.000;2024-01-25T10:16:50;2.40;;;1.90;;
58992;SDS011;44782;0.000;0.000;2024-01-25T10:19:06;2.70;;;2.20;;
58992;SDS011;44782;0.000;0.000;2024-01-25T10:21:25;2.73;;;2.30;;
58992;SDS011;44782;0.000;0.000;2024-01-25T10:23:43;2.33;;;2.03;;
58992;SDS011;44782;0.000;0.000;2024-01-25T10:26:03;2.83;;;2.30;;
58992;SDS011;44782;0.000;0.000;2024-01-25T10:28:19;2.10;;;1.90;;
58992;SDS011;44782;0.000;0.000;2024-01-25T10:30:35;2.47;;;2.27;;
58992;SDS011;44782;0.000;0.000;2024-01-25T10:32:51;2.50;;;2.13;;
58992;SDS011;44782;0.000;0.000;2024-01-25T10:35:08;2.57;;;2.23;;
58992;SDS011;44782;0.000;0.000;2024-01-25T10:37:25;2.83;;;2.50;;
58992;SDS011;44782;0.000;0.000;2024-01-25T10:39:43;2.47;;;2.13;;
58992;SDS011;44782;0.000;0.000;2024-01-25T10:42:00;3.00;;;2.20;;
58992;SDS011;44782;0.000;0.000;2024-01-25T10:44:16;2.80;;;2.27;;
58992;SDS011;44782;0.000;0.000;2024-01-25T10:46:34;2.40;;;2.10;;
58992;SDS011;44782;0.000;0.000;2024-01-25T10:48:50;2.47;;;2.27;;
58992;SDS011;44782;0.000;0.000;2024-01-25T10:51:06;2.53;;;2.20;;
58992;SDS011;44782;0.000;0.000;2024-01-25T10:53:24;2.70;;;2.17;;
58992;SDS011;44782;0.000;0.000;2024-01-25T10:55:41;2.63;;;2.17;;
58992;SDS011;44782;0.000;0.000;2024-01-25T10:57:57;2.67;;;2.10;;
58992;SDS011;44782;0.000;0.000;2024-01-25T11:00:14;2.40;;;2.20;;
58992;SDS011;44782;0.000;0.000;2024-01-25T11:02:31;2.27;;;2.07;;
58992;SDS011;44782;0.000;0.000;2024-01-25T11:04:53;2.20;;;2.00;;
58992;SDS011;44782;0.000;0.000;2024-01-25T11:07:10;2.50;;;2.30;;
58992;SDS011;44782;0.000;0.000;2024-01-25T11:09:26;2.20;;;2.00;;
58992;SDS011;44782;0.000;0.000;2024-01-25T11:11:43;2.67;;;2.30;;
58992;SDS011;44782;0.000;0.000;2024-01-25T11:14:02;2.20;;;1.80;;
58992;SDS011;44782;0.000;0.000;2024-01-25T11:16:18;2.47;;;2.27;;
58992;SDS011;44782;0.000;0.000;2024-01-25T11:18:51;2.63;;;2.10;;
58992;SDS011;44782;0.000;0.000;2024-01-25T11:21:08;2.20;;;2.00;;
58992;SDS011;44782;0.000;0.000;2024-01-25T11:23:24;2.53;;;2.30;;
58992;SDS011;44782;0.000;0.000;2024-01-25T11:25:47;2.97;;;1.90;;
58992;SDS011;44782;0.000;0.000;2024-01-25T11:28:04;2.23;;;2.03;;
58992;SDS011;44782;0.000;0.000;2024-01-25T11:30:20;2.20;;;2.00;;
58992;SDS011;44782;0.000;0.000;2024-01-25T11:32:36;3.33;;;2.40;;
58992;SDS011;44782;0.000;0.000;2024-01-25T11:34:58;3.00;;;2.13;;
58992;SDS011;44782;0.000;0.000;2024-01-25T11:37:14;2.10;;;1.90;;
58992;SDS011;44782;0.000;0.000;2024-01-25T11:39:32;2.43;;;1.93;;
58992;SDS011;44782;0.000;0.000;2024-01-25T11:41:50;2.67;;;2.20;;
58992;SDS011;44782;0.000;0.000;2024-01-25T11:44:06;2.10;;;1.90;;
58992;SDS011;44782;0.000;0.000;2024-01-25T11:46:22;2.50;;;2.13;;
58992;SDS011;44782;0.000;0.000;2024-01-25T11:48:39;2.50;;;2.00;;
58992;SDS011;44782;0.000;0.000;2024-01-25T11:50:56;2.20;;;2.00;;
58992;SDS011;44782;0.000;0.000;2024-01-25T11:53:14;2.17;;;1.80;;
58992;SDS011;44782;0.000;0.000;2024-01-25T11:55:30;2.10;;;1.87;;
58992;SDS011;44782;0.000;0.000;2024-01-25T11:57:46;2.50;;;2.20;;
58992;SDS011;44782;0.000;0.000;2024-01-25T12:00:02;2.20;;;2.00;;
58992;SDS011;44782;0.000;0.000;2024-01-25T12:02:22;1.92;;;1.73;;
58992;SDS011;44782;0.000;0.000;2024-01-25T12:04:39;2.30;;;2.10;;
58992;SDS011;44782;0.000;0.000;2024-01-25T12:06:55;2.80;;;2.10;;
58992;SDS011;44782;0.000;0.000;2024-01-25T12:09:10;2.40;;;2.10;;
58992;SDS011;44782;0.000;0.000;2024-01-25T12:11:27;2.30;;;2.10;;
58992;SDS011;44782;0.000;0.000;2024-01-25T12:13:42;2.63;;;2.10;;
58992;SDS011;44782;0.000;0.000;2024-01-25T12:15:58;2.13;;;1.93;;
58992;SDS011;44782;0.000;0.000;2024-01-25T12:18:15;2.73;;;1.80;;
58992;SDS011;44782;0.000;0.000;2024-01-25T12:20:31;2.10;;;1.90;;
58992;SDS011;44782;0.000;0.000;2024-01-25T12:22:48;3.67;;;2.00;;
58992;SDS011;44782;0.000;0.000;2024-01-25T12:25:06;2.13;;;1.93;;
58992;SDS011;44782;0.000;0.000;2024-01-25T12:27:24;2.23;;;1.90;;
58992;SDS011;44782;0.000;0.000;2024-01-25T12:29:40;2.20;;;2.00;;
58992;SDS011;44782;0.000;0.000;2024-01-25T12:31:58;2.30;;;1.90;;
58992;SDS011;44782;0.000;0.000;2024-01-25T12:34:13;2.20;;;1.90;;
58992;SDS011;44782;0.000;0.000;2024-01-25T12:36:32;2.87;;;1.90;;
58992;SDS011;44782;0.000;0.000;2024-01-25T12:38:49;2.00;;;1.80;;
58992;SDS011;44782;0.000;0.000;2024-01-25T12:41:04;2.27;;;1.90;;
58992;SDS011;44782;0.000;0.000;2024-01-25T12:43:20;1.90;;;1.80;;
58992;SDS011;44782;0.000;0.000;2024-01-25T12:45:39;2.10;;;1.70;;
58992;SDS011;44782;0.000;0.000;2024-01-25T12:47:54;2.20;;;1.80;;
58992;SDS011;44782;0.000;0.000;2024-01-25T12:50:10;2.10;;;1.90;;
58992;SDS011;44782;0.000;0.000;2024-01-25T12:52:26;2.33;;;2.00;;
58992;SDS011;44782;0.000;0.000;2024-01-25T12:54:41;2.17;;;1.97;;
58992;SDS011;44782;0.000;0.000;2024-01-25T12:56:58;2.00;;;1.80;;
58992;SDS011;44782;0.000;0.000;2024-01-25T12:59:13;2.03;;;1.83;;
58992;SDS011;44782;0.000;0.000;2024-01-25T13:01:29;2.60;;;2.10;;
58992;SDS011;44782;0.000;0.000;2024-01-25T13:03:45;1.90;;;1.77;;
58992;SDS011;44782;0.000;0.000;2024-01-25T13:06:02;2.27;;;2.07;;
58992;SDS011;44782;0.000;0.000;2024-01-25T13:08:18;2.17;;;1.87;;
58992;SDS011;44782;0.000;0.000;2024-01-25T13:10:34;1.93;;;1.77;;
58992;SDS011;44782;0.000;0.000;2024-01-25T13:12:49;2.00;;;1.80;;
58992;SDS011;44782;0.000;0.000;2024-01-25T13:15:05;1.83;;;1.73;;
58992;SDS011;44782;0.000;0.000;2024-01-25T13:17:22;1.90;;;1.70;;
58992;SDS011;44782;0.000;0.000;2024-01-25T13:19:39;1.90;;;1.80;;
58992;SDS011;44782;0.000;0.000;2024-01-25T13:21:54;1.80;;;1.70;;
58992;SDS011;44782;0.000;0.000;2024-01-25T13:24:10;2.40;;;1.90;;
58992;SDS011;44782;0.000;0.000;2024-01-25T13:26:26;1.93;;;1.77;;
58992;SDS011;44782;0.000;0.000;2024-01-25T13:28:42;2.03;;;1.80;;
58992;SDS011;44782;0.000;0.000;2024-01-25T13:30:57;2.00;;;1.80;;
58992;SDS011;44782;0.000;0.000;2024-01-25T13:33:14;2.13;;;1.80;;
58992;SDS011;44782;0.000;0.000;2024-01-25T13:35:30;2.23;;;1.83;;
58992;SDS011;44782;0.000;0.000;2024-01-25T13:37:46;1.70;;;1.60;;
58992;SDS011;44782;0.000;0.000;2024-01-25T13:40:01;2.33;;;2.03;;
58992;SDS011;44782;0.000;0.000;2024-01-25T13:42:19;1.90;;;1.80;;
58992;SDS011;44782;0.000;0.000;2024-01-25T13:44:34;2.07;;;1.87;;
58992;SDS011;44782;0.000;0.000;2024-01-25T13:46:50;1.90;;;1.70;;
58992;SDS011;44782;0.000;0.000;2024-01-25T13:49:06;2.03;;;1.83;;
58992;SDS011;44782;0.000;0.000;2024-01-25T13:51:21;2.40;;;1.80;;
58992;SDS011;44782;0.000;0.000;2024-01-25T13:53:37;1.70;;;1.60;;
58992;SDS011;44782;0.000;0.000;2024-01-25T13:55:52;1.97;;;1.87;;